Startpagina
METAR-TAF:

METAR-TAF

Vliegvelden :

Mecheria, Algerije

breedte: 34-56N, lengte: 000-26W, hoogte: 1149 m

Actueel weer

Dit bericht is 52 minuten geleden gemaakt, om 02:00 UTC
Wind 12 kt uit het noorden
Temperatuur 18°C
Vochtigheid 59%
Druk 1016 hPa
Zicht 10 km of meer
Weinig wolken op 3000 ft
Verspreide wolken op 23300 ft

METAR: DAAY 250200Z 35012KT 9999 FEW030 SCT233 18/10 Q1016

Tijdstip: 03:52 (02:52 UTC)

Verwachting

Dit bericht is 9 uur en het 52 minuten geleden gemaakt, om 17:00 UTC
Verwachting geldig van 24 om 18 UTC tot 25 om 03 UTC
Wind 15 kt uit het westen
Zicht 10 km of meer
Verspreide wolken op 3300 ft
Verspreide wolken op 23300 ft
Kans 40% :
Tijdelijke
van 24 om 18 UTC tot 24 om 22 UTC
Zicht: 6000 m
Weinig wolken op 3000 ft, Cumulonimbus.
Gebroken wolken op 3300 ft
onweer, lichte regen

TAF: DAAY 241700Z 2418/2503 28015KT 9999 SCT033 SCT233 PROB40 TEMPO 2418/2422 6000 -TSRA FEW030CB BKN033

Waarnemingen en weersverwachtingen van meer dan 4000 vliegvelden (METAR en TAF).

De beschikbare stations zijn de gele en rode punten op de kaart.

Ga met uw muis naar het station om de naam te zien.

Klik dan om waarnemingen en weersverwachtingen te zien.

kaart wijzigen: klik op de groene knoppen met een zwart kruis om in te zoomen, op de groene knop met een streepje om uit te zoomen of op de groene pijlen voor aangrenzende kaarten.


METAR-TAF: